Electric Mills, Mississippi
Current Conditions -  °F | °C
As of 7:56 PM on Thursday 20 Nov 2014 (Local Time) from KNMM Reporting Station
Scattered Clouds Scattered Clouds  
Wind Chill: 51°   Ceiling: Unl
Heat Index: 51°   Visibility: 10mi
Dew Point: 46°   Wind: 0mph
Humidity: 83%   Direction: NA
Pressure: 30.23"   Gusts: NA
Location:  32.8406°N, 88.5164°W
Report Text: KNMM 210156Z 00000KT 10SM SCT080 11/08 A3023 RMK AO2 SLP248 T01060078 $
Loading
Personal Weather Stations






























Interactive Weather Map New forecast layout! Learn more

10-Day Weather Forecast

Advertisements
Track Severe Weather on mobile